KPWT Airport Information

Runway Information
Runway 01 Length 6000 ft width 150 ft
Elevation 444 ft Threshold 0 ft Heading 33
Runway 19 Length 6000 ft Width 150 ft
Elevation 441 ft Threshold 0 ft Heading 213
Runway 16 Length 5122 ft width 150 ft
Elevation 0 ft Threshold 0 ft Heading 179
Runway 34 Length 5122 ft Width 150 ft
Elevation 0 ft Threshold 0 ft Heading 359
Airport Frequencies
Type A/D Name SEATTLE AP Frequency 127.1 MHZ
Type AWOS Name AWOS 3 Frequency 121.2 MHZ
Type UNIC Name CTAF/UNICO Frequency 123.05 MHZ
Airport Navaids
Type NDB Name Carney Frequency 274 KHZ
Type NDB Name Kitsap Frequency 206 KHZ
Airport Weather Information & NOTAM
ADDS - METARS form results

(0931 UTC 14 October 2019)
Data provider http://aviationweather.gov/metar/data/
 
METAR text: KPWT 140925Z AUTO 00000KT 1/2SM FG VV001 03/02 A3007 RMK AO2 RAB02E25 PNO $
Conditions at: KPWT (BREMERTON NTNL , WA, US) observed 0925 UTC 14 October 2019
Temperature: 3.0°C (37°F)
Dewpoint: 2.0°C (36°F) [RH = 93%]
Pressure (altimeter): 30.07 inches Hg (1018.4 mb)
Winds: calm
Visibility: 0.50 miles (0.80 km)
Ceiling: indefinite ceiling with vertical visibility of 100 feet AGL
Clouds: obscured sky
Weather: FG  (fog)
SOME DATA ABOVE MAY BE INACCURATE!!!
"$" is an indication the sensor requires maintenance

METAR text: KPWT 140921Z AUTO 00000KT 3/4SM -RA BR BKN002 03/03 A3007 RMK AO2 RAB02 PNO $
Conditions at: KPWT (BREMERTON NTNL , WA, US) observed 0921 UTC 14 October 2019
Temperature: 3.0°C (37°F)
Dewpoint: 3.0°C (37°F) [RH = 100%]
Pressure (altimeter): 30.07 inches Hg (1018.4 mb)
Winds: calm
Visibility: 0.75 miles (1.21 km)
Ceiling: 200 feet AGL
Clouds: broken clouds at 200 feet AGL
Weather: -RA BR  (light rain, mist)
SOME DATA ABOVE MAY BE INACCURATE!!!
"$" is an indication the sensor requires maintenance

METAR text: KPWT 140905Z AUTO 00000KT 1/4SM -RA FG BKN002 03/03 A3006 RMK AO2 RAB02 PNO $
Conditions at: KPWT (BREMERTON NTNL , WA, US) observed 0905 UTC 14 October 2019
Temperature: 3.0°C (37°F)
Dewpoint: 3.0°C (37°F) [RH = 100%]
Pressure (altimeter): 30.06 inches Hg (1018.0 mb)
Winds: calm
Visibility: 0.25 miles (0.40 km)
Ceiling: 200 feet AGL
Clouds: broken clouds at 200 feet AGL
Weather: -RA FG  (light rain, fog)
SOME DATA ABOVE MAY BE INACCURATE!!!
"$" is an indication the sensor requires maintenance

METAR text: KPWT 140900Z AUTO 00000KT 3/4SM BR BKN002 04/03 A3006 RMK AO2 PNO $
Conditions at: KPWT (BREMERTON NTNL , WA, US) observed 0900 UTC 14 October 2019
Temperature: 4.0°C (39°F)
Dewpoint: 3.0°C (37°F) [RH = 93%]
Pressure (altimeter): 30.06 inches Hg (1018.0 mb)
Winds: calm
Visibility: 0.75 miles (1.21 km)
Ceiling: 200 feet AGL
Clouds: broken clouds at 200 feet AGL
Weather: BR  (mist)
SOME DATA ABOVE MAY BE INACCURATE!!!
"$" is an indication the sensor requires maintenance

METAR text: KPWT 140856Z AUTO 00000KT 5SM BR BKN002 03/03 A3006 RMK AO2 SLP198 6//// T00330028 53009 PNO $
Conditions at: KPWT (BREMERTON NTNL , WA, US) observed 0856 UTC 14 October 2019
Temperature: 3.3°C (38°F)
Dewpoint: 2.8°C (37°F) [RH = 97%]
Pressure (altimeter): 30.06 inches Hg (1018.0 mb)
[Sea-level pressure: 1019.8 mb]
Winds: calm
Visibility: 5 miles ( 8 km)
Ceiling: 200 feet AGL
Clouds: broken clouds at 200 feet AGL
Weather: BR  (mist)
SOME DATA ABOVE MAY BE INACCURATE!!!
"$" is an indication the sensor requires maintenance

METAR text: KPWT 140841Z AUTO 00000KT 3SM BR FEW002 03/03 A3005 RMK AO2 PNO $
Conditions at: KPWT (BREMERTON NTNL , WA, US) observed 0841 UTC 14 October 2019
Temperature: 3.0°C (37°F)
Dewpoint: 3.0°C (37°F) [RH = 100%]
Pressure (altimeter): 30.05 inches Hg (1017.7 mb)
Winds: calm
Visibility: 3 miles ( 5 km)
Ceiling: at least 12,000 feet AGL
Clouds: few clouds at 200 feet AGL
Weather: BR  (mist)
SOME DATA ABOVE MAY BE INACCURATE!!!
"$" is an indication the sensor requires maintenance

METAR text: KPWT 140838Z AUTO 13003KT 1 1/4SM BR CLR 03/03 A3005 RMK AO2 PNO $
Conditions at: KPWT (BREMERTON NTNL , WA, US) observed 0838 UTC 14 October 2019
Temperature: 3.0°C (37°F)
Dewpoint: 3.0°C (37°F) [RH = 100%]
Pressure (altimeter): 30.05 inches Hg (1017.7 mb)
Winds: from the SE (130 degrees) at 3 MPH (3 knots; 1.5 m/s)
Visibility: 1.25 miles (2.01 km)
Ceiling: at least 12,000 feet AGL
Clouds: sky clear below 12,000 feet AGL
Weather: BR  (mist)
SOME DATA ABOVE MAY BE INACCURATE!!!
"$" is an indication the sensor requires maintenance

Forecast for: KPWT (BREMERTON NTNL , WA, US)
Text: KPWT 140901Z 1409/1506 00000KT 5SM BR SCT002
Forecast period: 0900 to 1100 UTC 14 October 2019
Forecast type: FROM: standard forecast or significant change
Winds: calm
Visibility: 5 miles (8 km)
Ceiling: at least 12,000 feet AGL
Clouds: scattered clouds at 200 feet AGL
Weather: BR  (mist)
Text: TEMPO 1409/1411 2SM BR BKN002
Forecast period: 0900 to 1100 UTC 14 October 2019
Forecast type: TEMPORARY: The following changes expected for less than half the time period
Visibility: 2.00 miles (3.22 km)
Ceiling: 200 feet AGL
Clouds: broken clouds at 200 feet AGL
Weather: BR  (mist)
Text: FM141100 00000KT 3SM BR OVC003
Forecast period: 1100 to 1700 UTC 14 October 2019
Forecast type: FROM: standard forecast or significant change
Winds: calm
Visibility: 3 miles (5 km)
Ceiling: 300 feet AGL
Clouds: overcast cloud deck at 300 feet AGL
Weather: BR  (mist)
Text: TEMPO 1412/1416 1/2SM FG VV002
Forecast period: 1200 to 1600 UTC 14 October 2019
Forecast type: TEMPORARY: The following changes expected for less than half the time period
Visibility: 0.50 miles (0.80 km)
Ceiling: indefinite ceiling with vertical visibility of 200 feet AGL
Clouds: obscured sky
Weather: FG  (fog)
Text: FM141700 VRB03KT P6SM SCT010 SCT200
Forecast period: 1700 to 1900 UTC 14 October 2019
Forecast type: FROM: standard forecast or significant change
Winds: variable direction winds at 3 MPH (3 knots; 1.5 m/s)
Visibility: 6 or more miles 10+ km)
Ceiling: at least 12,000 feet AGL
Clouds: scattered clouds at 1000 feet AGL
scattered clouds at 20000 feet AGL
Weather: no significant weather forecast for this period
Text: FM141900 05005KT P6SM SCT200
Forecast period: 1900 UTC 14 October 2019 to 0300 UTC 15 October 2019
Forecast type: FROM: standard forecast or significant change
Winds: from the NE (50 degrees) at 6 MPH (5 knots; 2.6 m/s)
Visibility: 6 or more miles 10+ km)
Ceiling: at least 12,000 feet AGL
Clouds: scattered clouds at 20000 feet AGL
Weather: no significant weather forecast for this period
Text: FM150300 VRB03KT P6SM BKN200
Forecast period: 0300 to 0600 UTC 15 October 2019
Forecast type: FROM: standard forecast or significant change
Winds: variable direction winds at 3 MPH (3 knots; 1.5 m/s)
Visibility: 6 or more miles 10+ km)
Ceiling: 20000 feet AGL
Clouds: broken clouds at 20000 feet AGL
Weather: no significant weather forecast for this period